Thursday, April 28, 2016
23:54 UTC
  |  Log In   |  Register Free
Airport Search:

Grant Co International Airport
(KMWH)

FAA data valid effective Mar 31 2016 - May 26 2016 (unless otherwise noted).

 
 
 
 
 
 
 
 
 
 
 
 
 
 
Summary: Grant Co International (MWH)

Weather Summary


METAR for KMWH is not available. Closest METAR is for KEPH
KMWH  (most recent observation was updatred at 28:22 UTC)
282252Z 14004KT 10SM SCT060 22/05 A2992 RMK AO2 SLP130 T02170050

KEPH  (10.0 nm SE)   (most recent observation was updated at 28:22 UTC)
282253Z AUTO 00000KT 10SM FEW065 21/05 A2990 RMK AO2 SLP124 T02110050

TAF for KMWH is not available.
KMWH
282336Z 2900/2924 22006KT P6SM SCT060 FM290600 24005KT P6SM BKN120 FM291800 25009KT P6SM VCSH SCT060 BKN090

GlobalAir.com is loading additional information.
 Current Weather at MWH
71.0 F° (21.7 C°)
Fair
Southwest winds at 8.1 mph
Pressure:
29.93 in
Humidity:
34%
Wind:
Southwest at 8.1 MPH (7 KT)
Dew Point:
41.0 F° (5.0 C°)
Visibility:
10.00 mi
MWH NOAA Radar

Communications Summary


CTAF118.25
UNICOM122.95
ATIS119.05
WX ASOS
GRANT COUNTY GROUND121.9 [0600-2200]
GRANT COUNTY TOWER118.25 (EAST)
128.0 (WEST) [0600-2200]
GRANT COUNTY APPROACH126.4
134.35
379.95
GRANT COUNTY DEPARTURE126.4
134.35
379.95
CLEARANCE DELIVERYN/A
EMERGENCY121.5
IC126.4
379.95

Terminal Procedures Summary


Airport Diagram

Approaches
More Approaches
Departures
Special Minimums

Closest Alternate Airports with Instrument Procedures

KEPH - Ephrata Municipal - 11.6 nm NW from MWH

WN95 - Brown Boy - 30.4 nm SW from MWH

KEAT - Pangborn Memorial - 43.6 nm NW from MWH

5WA5 - Ross Private Strip - 47.4 nm NW from MWH

KELN - Bowers Field - 58.3 nm SW from MWH

KRLD - Richland - 62.5 nm SE from MWH

KPSC - Tri-Cities - 66 nm SE from MWH

KYKM - Yakima Air Terminal/Mcallister Field - 72.9 nm SW from MWH

WA70 - Frosty Creek - 83.3 nm NE from MWH

82WN - Magee Creek Aerodrome - 83.9 nm NE from MWH

Find All Airport Services Find A Hotel Find A Rental Car Find A Golf Course Find A Restaurant $100 Hamburger



FBO's on the Field
FBO Company Facility Photos Services Transportation Aviation Fuel Prices: Prices include tax
Catering Weather Repair Courtesy Rental Type 100LL JetA JetA+ MOGAS 8087
 
Columbia Pacific Aviation

Currently rated 4.2 by 1 person
FS:Avfuel
Last Updated: Apr-28
Login to update fuel prices
SS:
Contact Columbia Pacific AviationMore FBO Information
 
Million Air Moses Lake

This FBO has not yet been rated
FS:Avfuel
Last Updated: Apr-26
Login to update fuel prices
SS:
Contact Million Air Moses LakeMore FBO Information
 
Add another FBO Facility Photos Catering Weather Repair Courtesy Rental Type 100LL JetA JetA+ MOGAS 8087
Services Transportation Aviation Fuel Prices: Prices include tax


model-print
model-print
model-print
model-print